createdAt,value
2019-03-08T00:00:36.203Z,42.81
2019-03-08T00:01:36.191Z,42.71
2019-03-08T00:02:36.184Z,42.11
2019-03-08T00:03:36.159Z,42.71
2019-03-08T00:04:36.176Z,42.61
2019-03-08T00:05:36.136Z,42.61
2019-03-08T00:06:36.124Z,42.51
2019-03-08T00:07:36.122Z,42.32
2019-03-08T00:08:36.117Z,42.41
2019-03-08T00:09:36.524Z,43.11
2019-03-08T00:10:36.098Z,42.81
2019-03-08T00:11:36.067Z,43.31
2019-03-08T00:12:36.061Z,43.01
2019-03-08T00:13:36.049Z,42.71
2019-03-08T00:14:36.527Z,42.51
2019-03-08T00:15:36.023Z,42.61
2019-03-08T00:16:36.027Z,42.71
2019-03-08T00:17:36.005Z,42.41
2019-03-08T00:18:35.993Z,42.81
2019-03-08T00:19:35.995Z,42.33
2019-03-08T00:20:35.971Z,43.11
2019-03-08T00:21:35.976Z,42.61
2019-03-08T00:22:35.952Z,43.31
2019-03-08T00:23:35.959Z,43.11
2019-03-08T00:24:35.929Z,42.91
2019-03-08T00:25:35.920Z,42.71
2019-03-08T00:26:35.919Z,42.71
2019-03-08T00:27:35.917Z,42.91
2019-03-08T00:28:35.883Z,42.59
2019-03-08T00:29:35.885Z,43.51
2019-03-08T00:30:35.877Z,42.51
2019-03-08T00:31:35.850Z,42.41
2019-03-08T00:32:35.848Z,42.41
2019-03-08T00:33:35.837Z,42.21
2019-03-08T00:34:36.038Z,43.21
2019-03-08T00:35:35.816Z,42.71
2019-03-08T00:36:35.798Z,42.69
2019-03-08T00:37:35.787Z,42.71
2019-03-08T00:38:35.774Z,42.51
2019-03-08T00:39:35.770Z,42.81
2019-03-08T00:40:36.031Z,43.21
2019-03-08T00:41:35.757Z,42.71
2019-03-08T00:42:35.741Z,42.41
2019-03-08T00:43:35.720Z,42.61
2019-03-08T00:44:35.717Z,42.61
2019-03-08T00:45:35.708Z,41.50
2019-03-08T00:46:36.059Z,41.31
2019-03-08T00:47:35.689Z,41.99
2019-03-08T00:48:35.665Z,41.71
2019-03-08T00:49:35.696Z,41.89
2019-03-08T00:50:35.670Z,42.02
2019-03-08T00:51:35.652Z,42.51
2019-03-08T00:52:35.653Z,42.10
2019-03-08T00:53:35.619Z,42.19
2019-03-08T00:54:35.611Z,42.02
2019-03-08T00:55:35.597Z,41.50
2019-03-08T00:56:35.585Z,42.41
2019-03-08T00:57:35.576Z,42.19
2019-03-08T00:58:35.564Z,42.40
2019-03-08T00:59:35.548Z,42.40
2019-03-08T01:00:35.545Z,41.31
2019-03-08T01:01:35.537Z,42.49
2019-03-08T01:02:35.888Z,42.71
2019-03-08T01:03:35.514Z,42.21
2019-03-08T01:04:35.512Z,41.89
2019-03-08T01:05:35.502Z,42.02
2019-03-08T01:06:35.483Z,42.79
2019-03-08T01:07:35.461Z,41.89
2019-03-08T01:08:35.453Z,41.71
2019-03-08T01:09:35.442Z,41.31
2019-03-08T01:10:35.461Z,41.89
2019-03-08T01:11:35.421Z,41.91
2019-03-08T01:12:35.403Z,41.82
2019-03-08T01:13:35.399Z,42.61
2019-03-08T01:14:35.386Z,42.19
2019-03-08T01:15:35.379Z,41.31
2019-03-08T01:16:35.374Z,42.71
2019-03-08T01:17:35.383Z,41.41
2019-03-08T01:18:35.351Z,42.41
2019-03-08T01:19:35.333Z,42.61
2019-03-08T01:20:35.321Z,41.80
2019-03-08T01:21:35.311Z,42.29
2019-03-08T01:22:35.320Z,42.11
2019-03-08T01:23:35.295Z,42.11
2019-03-08T01:24:35.277Z,42.61
2019-03-08T01:25:35.263Z,42.41
2019-03-08T01:26:35.283Z,42.51
2019-03-08T01:27:35.248Z,42.71
2019-03-08T01:28:35.229Z,42.51
2019-03-08T01:29:35.228Z,42.71
2019-03-08T01:30:35.211Z,42.61
2019-03-08T01:31:35.537Z,42.41
2019-03-08T01:32:35.189Z,42.29
2019-03-08T01:33:35.177Z,42.21
2019-03-08T01:34:35.173Z,42.61
2019-03-08T01:35:35.162Z,42.71
2019-03-08T01:36:35.143Z,42.21
2019-03-08T01:37:35.142Z,42.71
2019-03-08T01:38:35.135Z,42.61
2019-03-08T01:39:35.113Z,42.11
2019-03-08T01:40:35.122Z,42.61
2019-03-08T01:41:35.094Z,42.81
2019-03-08T01:42:35.083Z,42.91
2019-03-08T01:43:35.070Z,42.32
2019-03-08T01:44:35.064Z,42.91
2019-03-08T01:45:35.046Z,42.32
2019-03-08T01:46:35.073Z,42.21
2019-03-08T01:47:35.027Z,43.01
2019-03-08T01:48:35.015Z,43.01
2019-03-08T01:49:35.053Z,42.61
2019-03-08T01:50:35.011Z,42.91
2019-03-08T01:51:34.986Z,42.51
2019-03-08T01:52:34.991Z,42.61
2019-03-08T01:53:34.989Z,42.61
2019-03-08T01:54:34.957Z,42.11
2019-03-08T01:55:34.938Z,42.61
2019-03-08T01:56:34.926Z,42.81
2019-03-08T01:57:34.937Z,41.80
2019-03-08T01:58:34.921Z,41.31
2019-03-08T01:59:34.902Z,41.82
2019-03-08T02:00:34.905Z,42.21
2019-03-08T02:01:34.876Z,42.41
2019-03-08T02:02:34.880Z,42.41
2019-03-08T02:03:34.865Z,42.11
2019-03-08T02:04:34.845Z,41.61
2019-03-08T02:05:35.043Z,41.52
2019-03-08T02:06:34.820Z,42.69
2019-03-08T02:07:34.826Z,41.91
2019-03-08T02:08:35.078Z,42.21
2019-03-08T02:09:34.824Z,41.89
2019-03-08T02:10:34.786Z,41.39
2019-03-08T02:11:34.783Z,41.82
2019-03-08T02:12:34.779Z,41.71
2019-03-08T02:13:34.751Z,41.60
2019-03-08T02:14:34.746Z,41.71
2019-03-08T02:15:34.752Z,41.41
2019-03-08T02:16:34.713Z,42.19
2019-03-08T02:17:34.710Z,41.91
2019-03-08T02:18:34.692Z,42.69
2019-03-08T02:19:34.685Z,41.89
2019-03-08T02:20:35.063Z,42.02
2019-03-08T02:21:34.668Z,42.21
2019-03-08T02:22:34.671Z,41.82
2019-03-08T02:23:34.655Z,41.99
2019-03-08T02:24:34.625Z,41.91
2019-03-08T02:25:34.616Z,42.11
2019-03-08T02:26:34.633Z,42.61
2019-03-08T02:27:34.613Z,42.21
2019-03-08T02:28:34.598Z,42.71
2019-03-08T02:29:34.588Z,41.91
2019-03-08T02:30:34.580Z,41.89
2019-03-08T02:31:34.571Z,42.02
2019-03-08T02:32:34.547Z,42.32
2019-03-08T02:33:34.545Z,42.02
2019-03-08T02:34:34.536Z,42.21
2019-03-08T02:35:34.514Z,42.02
2019-03-08T02:36:34.507Z,42.61
2019-03-08T02:37:34.492Z,42.11
2019-03-08T02:38:34.486Z,42.32
2019-03-08T02:39:34.579Z,42.21
2019-03-08T02:40:34.483Z,41.82
2019-03-08T02:41:34.453Z,42.32
2019-03-08T02:42:34.440Z,41.99
2019-03-08T02:43:34.450Z,41.99
2019-03-08T02:44:34.419Z,42.32
2019-03-08T02:45:34.410Z,42.10
2019-03-08T02:46:34.401Z,41.61
2019-03-08T02:47:34.383Z,41.71
2019-03-08T02:48:34.375Z,42.32
2019-03-08T02:49:34.377Z,41.61
2019-03-08T02:50:34.345Z,41.82
2019-03-08T02:51:34.342Z,41.61
2019-03-08T02:52:34.329Z,42.61
2019-03-08T02:53:34.329Z,41.61
2019-03-08T02:54:34.563Z,41.82
2019-03-08T02:55:34.289Z,41.91
2019-03-08T02:56:34.280Z,41.80
2019-03-08T02:57:34.592Z,41.91
2019-03-08T02:58:34.254Z,41.61
2019-03-08T02:59:34.253Z,42.41
2019-03-08T03:00:34.239Z,41.60
2019-03-08T03:01:34.228Z,41.82
2019-03-08T03:02:34.218Z,42.10
2019-03-08T03:03:34.232Z,42.21
2019-03-08T03:04:34.195Z,42.02
2019-03-08T03:05:34.204Z,41.52
2019-03-08T03:06:34.173Z,42.51
2019-03-08T03:07:34.162Z,41.89
2019-03-08T03:08:34.166Z,41.71
2019-03-08T03:09:34.138Z,41.71
2019-03-08T03:10:34.169Z,42.02
2019-03-08T03:11:34.119Z,41.61
2019-03-08T03:12:34.108Z,42.32
2019-03-08T03:13:34.096Z,42.21
2019-03-08T03:14:34.083Z,42.21
2019-03-08T03:15:34.099Z,41.61
2019-03-08T03:16:34.087Z,41.61
2019-03-08T03:17:34.056Z,42.02
2019-03-08T03:18:34.041Z,41.61
2019-03-08T03:19:34.034Z,42.81
2019-03-08T03:20:34.021Z,42.32
2019-03-08T03:21:34.053Z,42.11
2019-03-08T03:22:34.010Z,42.02
2019-03-08T03:23:33.996Z,42.81
2019-03-08T03:24:33.986Z,41.52
2019-03-08T03:25:33.977Z,41.71
2019-03-08T03:26:33.975Z,41.82
2019-03-08T03:27:33.959Z,41.91
2019-03-08T03:28:33.952Z,42.02
2019-03-08T03:29:33.924Z,42.02
2019-03-08T03:30:33.953Z,42.11
2019-03-08T03:31:33.915Z,42.61
2019-03-08T03:32:33.902Z,41.89
2019-03-08T03:33:33.911Z,42.19
2019-03-08T03:34:33.883Z,41.91
2019-03-08T03:35:33.869Z,42.21
2019-03-08T03:36:33.855Z,42.21
2019-03-08T03:37:33.850Z,42.02
2019-03-08T03:38:33.860Z,41.99
2019-03-08T03:39:33.833Z,41.99
2019-03-08T03:40:33.817Z,41.80
2019-03-08T03:41:33.805Z,42.32
2019-03-08T03:42:33.803Z,41.71
2019-03-08T03:43:33.801Z,41.69
2019-03-08T03:44:33.763Z,41.50
2019-03-08T03:45:33.761Z,41.91
2019-03-08T03:46:33.741Z,41.50
2019-03-08T03:47:33.738Z,41.30
2019-03-08T03:48:33.737Z,41.39
2019-03-08T03:49:33.734Z,41.80
2019-03-08T03:50:33.698Z,41.60
2019-03-08T03:51:33.697Z,41.60
2019-03-08T03:52:33.677Z,41.50
2019-03-08T03:53:33.674Z,41.50
2019-03-08T03:54:33.670Z,41.19
2019-03-08T03:55:34.083Z,41.30
2019-03-08T03:56:33.643Z,41.30
2019-03-08T03:57:33.626Z,41.00
2019-03-08T03:58:33.612Z,41.60
2019-03-08T03:59:33.600Z,41.30
2019-03-08T04:00:33.613Z,41.39
2019-03-08T04:01:33.578Z,41.30
2019-03-08T04:02:33.575Z,41.00
2019-03-08T04:03:33.560Z,41.60
2019-03-08T04:04:33.548Z,41.19
2019-03-08T04:05:33.551Z,41.19
2019-03-08T04:06:33.558Z,41.39
2019-03-08T04:07:33.512Z,41.19
2019-03-08T04:08:33.521Z,41.50
2019-03-08T04:09:33.503Z,41.17
2019-03-08T04:10:33.489Z,41.47
2019-03-08T04:11:33.501Z,41.08
2019-03-08T04:12:33.472Z,41.38
2019-03-08T04:13:33.582Z,40.76
2019-03-08T04:14:33.439Z,40.14
2019-03-08T04:15:33.442Z,39.92
2019-03-08T04:16:33.416Z,39.11
2019-03-08T04:17:33.434Z,38.69
2019-03-08T04:18:33.603Z,39.17
2019-03-08T04:19:33.395Z,38.45
2019-03-08T04:20:33.407Z,37.54
2019-03-08T04:21:33.378Z,38.14
2019-03-08T04:22:33.600Z,37.62
2019-03-08T04:23:33.351Z,36.91
2019-03-08T04:24:33.333Z,37.11
2019-03-08T04:25:33.344Z,36.60
2019-03-08T04:26:33.311Z,36.68
2019-03-08T04:27:33.339Z,35.86
2019-03-08T04:28:33.312Z,35.47
2019-03-08T04:29:33.286Z,35.86
2019-03-08T04:30:33.276Z,35.06
2019-03-08T04:31:33.284Z,35.35
2019-03-08T04:32:33.257Z,35.34
2019-03-08T04:33:33.266Z,35.52
2019-03-08T04:34:33.248Z,35.12
2019-03-08T04:35:33.247Z,35.32
2019-03-08T04:36:33.226Z,35.00
2019-03-08T04:37:33.206Z,34.71
2019-03-08T04:38:33.209Z,34.20
2019-03-08T04:39:33.183Z,34.20
2019-03-08T04:40:33.174Z,34.50
2019-03-08T04:41:33.610Z,34.10
2019-03-08T04:42:33.142Z,34.28
2019-03-08T04:43:33.129Z,33.79
2019-03-08T04:44:33.608Z,34.17
2019-03-08T04:45:33.118Z,33.28
2019-03-08T04:46:33.097Z,32.77
2019-03-08T04:47:33.105Z,32.77
2019-03-08T04:48:33.082Z,32.87
2019-03-08T04:49:33.067Z,32.87
2019-03-08T04:50:33.081Z,33.34
2019-03-08T04:51:33.056Z,32.87
2019-03-08T04:52:33.044Z,32.45
2019-03-08T04:53:33.050Z,32.45
2019-03-08T04:54:33.021Z,32.85
2019-03-08T04:55:33.015Z,32.54
2019-03-08T04:56:33.007Z,32.64
2019-03-08T04:57:32.999Z,32.44
2019-03-08T04:58:32.992Z,32.64
2019-03-08T04:59:32.967Z,32.73
2019-03-08T05:00:32.956Z,32.44
2019-03-08T05:01:32.955Z,31.95
2019-03-08T05:02:32.941Z,32.34
2019-03-08T05:03:32.937Z,32.54
2019-03-08T05:04:32.919Z,32.85
2019-03-08T05:05:32.900Z,33.25
2019-03-08T05:06:32.902Z,32.85
2019-03-08T05:07:32.872Z,32.65
2019-03-08T05:08:32.864Z,32.85
2019-03-08T05:09:32.855Z,32.95
2019-03-08T05:10:32.875Z,32.85
2019-03-08T05:11:32.846Z,32.73
2019-03-08T05:12:32.826Z,32.85
2019-03-08T05:13:32.818Z,32.35
2019-03-08T05:14:32.802Z,32.56
2019-03-08T05:15:33.119Z,32.35
2019-03-08T05:16:32.801Z,32.65
2019-03-08T05:17:32.815Z,32.65
2019-03-08T05:18:33.095Z,32.75
2019-03-08T05:19:32.748Z,32.65
2019-03-08T05:20:32.737Z,32.75
2019-03-08T05:21:32.729Z,32.75
2019-03-08T05:22:32.729Z,32.75
2019-03-08T05:23:32.718Z,32.45
2019-03-08T05:24:32.707Z,32.56
2019-03-08T05:25:32.681Z,32.87
2019-03-08T05:26:32.675Z,33.06
2019-03-08T05:27:33.117Z,32.47
2019-03-08T05:28:32.651Z,32.87
2019-03-08T05:29:32.640Z,32.87
2019-03-08T05:30:32.639Z,32.77
2019-03-08T05:31:32.630Z,33.06
2019-03-08T05:32:32.636Z,32.67
2019-03-08T05:33:32.630Z,32.87
2019-03-08T05:34:32.597Z,32.77
2019-03-08T05:35:32.601Z,32.78
2019-03-08T05:36:32.577Z,33.08
2019-03-08T05:37:32.565Z,33.47
2019-03-08T05:38:32.578Z,33.58
2019-03-08T05:39:32.543Z,33.47
2019-03-08T05:40:32.538Z,32.98
2019-03-08T05:41:32.520Z,33.47
2019-03-08T05:42:32.499Z,33.98
2019-03-08T05:43:32.523Z,33.98
2019-03-08T05:44:32.487Z,33.18
2019-03-08T05:45:32.511Z,33.49
2019-03-08T05:46:32.463Z,33.69
2019-03-08T05:47:32.455Z,34.18
2019-03-08T05:48:32.497Z,34.18
2019-03-08T05:49:32.437Z,34.08
2019-03-08T05:50:32.436Z,34.08
2019-03-08T05:51:32.420Z,33.80
2019-03-08T05:52:32.405Z,33.61
2019-03-08T05:53:32.398Z,33.80
2019-03-08T05:54:32.624Z,34.00
2019-03-08T05:55:32.381Z,33.80
2019-03-08T05:56:32.359Z,34.50
2019-03-08T05:57:32.349Z,34.50
2019-03-08T05:58:33.078Z,34.30
2019-03-08T05:59:32.316Z,34.39
2019-03-08T06:00:35.235Z,34.20
2019-03-08T06:01:32.299Z,34.41
2019-03-08T06:02:33.121Z,34.31
2019-03-08T06:03:32.283Z,33.92
2019-03-08T06:04:32.269Z,34.51
2019-03-08T06:05:32.272Z,34.31
2019-03-08T06:06:32.253Z,34.41
2019-03-08T06:07:32.245Z,34.12
2019-03-08T06:08:32.234Z,33.41
2019-03-08T06:09:32.223Z,32.90
2019-03-08T06:10:32.220Z,32.50
2019-03-08T06:11:32.186Z,32.01
2019-03-08T06:12:32.623Z,31.23
2019-03-08T06:13:32.186Z,30.94
2019-03-08T06:14:32.159Z,32.53
2019-03-08T06:15:32.142Z,31.56
2019-03-08T06:16:32.133Z,31.36
2019-03-08T06:17:32.127Z,30.57
2019-03-08T06:18:32.153Z,32.17
2019-03-08T06:19:32.124Z,31.57
2019-03-08T06:20:32.162Z,32.17
2019-03-08T06:21:32.105Z,31.18
2019-03-08T06:22:32.107Z,31.28
2019-03-08T06:23:32.145Z,30.99
2019-03-08T06:24:32.065Z,31.29
2019-03-08T06:25:32.043Z,31.29
2019-03-08T06:26:32.060Z,31.39
2019-03-08T06:27:32.037Z,30.99
2019-03-08T06:28:32.048Z,31.21
2019-03-08T06:29:31.999Z,31.39
2019-03-08T06:30:31.988Z,30.81
2019-03-08T06:31:31.981Z,32.10
2019-03-08T06:32:31.968Z,32.20
2019-03-08T06:33:31.976Z,30.52
2019-03-08T06:34:32.902Z,31.11
2019-03-08T06:35:31.942Z,32.21
2019-03-08T06:36:31.932Z,31.62
2019-03-08T06:37:31.919Z,31.13
2019-03-08T06:38:31.911Z,30.81
2019-03-08T06:39:31.890Z,30.53
2019-03-08T06:40:31.921Z,30.53
2019-03-08T06:41:31.869Z,31.44
2019-03-08T06:42:31.891Z,30.94
2019-03-08T06:43:31.848Z,30.65
2019-03-08T06:44:31.841Z,30.55
2019-03-08T06:45:31.823Z,31.55
2019-03-08T06:46:31.835Z,30.86
2019-03-08T06:47:31.842Z,30.66
2019-03-08T06:48:31.807Z,30.56
2019-03-08T06:49:31.789Z,30.86
2019-03-08T06:50:32.617Z,30.65
2019-03-08T06:51:31.772Z,30.76
2019-03-08T06:52:31.872Z,30.84
2019-03-08T06:53:31.816Z,30.74
2019-03-08T06:54:31.730Z,31.04
2019-03-08T06:55:31.721Z,30.63
2019-03-08T06:56:31.720Z,30.33
2019-03-08T06:57:32.154Z,30.41
2019-03-08T06:58:31.687Z,30.10
2019-03-08T06:59:31.672Z,30.19
2019-03-08T07:00:31.678Z,29.68
2019-03-08T07:01:31.666Z,29.17
2019-03-08T07:02:32.591Z,28.96
2019-03-08T07:03:31.634Z,30.05
2019-03-08T07:04:31.629Z,29.65
2019-03-08T07:05:31.606Z,29.34
2019-03-08T07:06:31.605Z,29.64
2019-03-08T07:07:31.605Z,29.33
2019-03-08T07:08:31.582Z,29.02
2019-03-08T07:09:31.589Z,29.30
2019-03-08T07:10:31.567Z,29.10
2019-03-08T07:11:31.546Z,28.99
2019-03-08T07:12:31.538Z,28.78
2019-03-08T07:13:31.547Z,27.89
2019-03-08T07:14:31.512Z,28.48
2019-03-08T07:15:31.541Z,28.56
2019-03-08T07:16:31.543Z,28.66
2019-03-08T07:17:31.489Z,28.65
2019-03-08T07:18:32.120Z,28.55
2019-03-08T07:19:40.362Z,28.45
2019-03-08T07:20:33.129Z,28.34
2019-03-08T07:21:32.140Z,28.23
2019-03-08T07:22:31.671Z,28.23
2019-03-08T07:23:32.126Z,28.13
2019-03-08T07:24:32.127Z,28.23
2019-03-08T07:25:32.124Z,28.12
2019-03-08T07:26:32.135Z,28.13
2019-03-08T07:27:32.237Z,28.42
2019-03-08T07:28:31.709Z,28.42
2019-03-08T07:29:32.295Z,28.51
2019-03-08T07:30:32.295Z,28.31
2019-03-08T07:31:31.476Z,28.52
2019-03-08T07:32:32.230Z,28.22
2019-03-08T07:33:32.280Z,28.51
2019-03-08T07:34:32.215Z,28.41
2019-03-08T07:35:32.937Z,28.61
2019-03-08T07:36:31.297Z,28.70
2019-03-08T07:37:32.130Z,28.61
2019-03-08T07:38:38.197Z,28.42
2019-03-08T07:39:32.183Z,28.23
2019-03-08T07:40:33.427Z,28.33
2019-03-08T07:41:31.249Z,28.42
2019-03-08T07:42:32.155Z,28.52
2019-03-08T07:43:32.144Z,28.42
2019-03-08T07:44:32.206Z,28.42
2019-03-08T07:45:32.166Z,28.42
2019-03-08T07:46:31.207Z,28.63
2019-03-08T07:47:32.903Z,28.63
2019-03-08T07:48:32.132Z,28.52
2019-03-08T07:49:31.148Z,29.21
2019-03-08T07:50:31.185Z,29.23
2019-03-08T07:51:31.641Z,29.33
2019-03-08T07:52:31.638Z,29.31
2019-03-08T07:53:31.640Z,28.72
2019-03-08T07:54:34.260Z,28.74
2019-03-08T07:55:31.682Z,29.21
2019-03-08T07:56:31.646Z,28.93
2019-03-08T07:57:35.303Z,29.23
2019-03-08T07:58:35.306Z,28.93
2019-03-08T07:59:36.748Z,29.05
2019-03-08T08:00:32.208Z,29.05
2019-03-08T08:01:31.640Z,29.14
2019-03-08T08:02:31.680Z,29.83
2019-03-08T08:03:31.646Z,29.53
2019-03-08T08:04:32.235Z,29.55
2019-03-08T08:05:31.646Z,29.75
2019-03-08T08:06:31.986Z,30.15
2019-03-08T08:07:32.303Z,30.06
2019-03-08T08:08:35.843Z,30.35
2019-03-08T08:09:33.727Z,30.04
2019-03-08T08:10:31.640Z,30.04
2019-03-08T08:11:35.209Z,30.06
2019-03-08T08:12:30.919Z,30.47
2019-03-08T08:13:31.654Z,30.26
2019-03-08T08:14:39.382Z,29.97
2019-03-08T08:15:31.863Z,29.97
2019-03-08T08:16:33.644Z,30.17
2019-03-08T08:17:31.204Z,29.88
2019-03-08T08:18:31.662Z,29.97
2019-03-08T08:19:31.664Z,31.16
2019-03-08T08:20:31.652Z,30.09
2019-03-08T08:21:33.130Z,30.58
2019-03-08T08:22:36.628Z,30.48
2019-03-08T08:23:35.471Z,30.29
2019-03-08T08:24:32.642Z,30.68
2019-03-08T08:25:36.801Z,30.38
2019-03-08T08:26:32.909Z,30.69
2019-03-08T08:27:31.657Z,30.78
2019-03-08T08:28:30.738Z,30.98
2019-03-08T08:29:35.030Z,31.29
2019-03-08T08:30:31.183Z,31.29
2019-03-08T08:31:31.676Z,31.29
2019-03-08T08:32:33.661Z,31.78
2019-03-08T08:33:33.733Z,31.59
2019-03-08T08:34:31.178Z,31.29
2019-03-08T08:35:31.155Z,30.89
2019-03-08T08:36:31.161Z,30.89
2019-03-08T08:37:31.154Z,30.99
2019-03-08T08:38:30.696Z,31.48
2019-03-08T08:39:30.681Z,31.29
2019-03-08T08:40:31.213Z,31.78
2019-03-08T08:41:31.155Z,31.29
2019-03-08T08:42:31.183Z,30.91
2019-03-08T08:43:32.035Z,31.88
2019-03-08T08:44:31.178Z,31.70
2019-03-08T08:45:31.152Z,32.19
2019-03-08T08:46:31.170Z,32.29
2019-03-08T08:47:31.875Z,32.40
2019-03-08T08:48:31.662Z,32.10
2019-03-08T08:49:31.194Z,32.21
2019-03-08T08:50:31.186Z,32.50
2019-03-08T08:51:31.167Z,32.81
2019-03-08T08:52:31.188Z,33.21
2019-03-08T08:53:37.213Z,32.71
2019-03-08T08:54:30.601Z,32.81
2019-03-08T08:55:31.327Z,33.01
2019-03-08T08:56:31.612Z,33.31
2019-03-08T08:57:33.134Z,32.71
2019-03-08T08:58:31.179Z,32.71
2019-03-08T08:59:30.907Z,32.81
2019-03-08T09:00:31.316Z,33.62
2019-03-08T09:01:31.160Z,33.82
2019-03-08T09:02:31.182Z,33.62
2019-03-08T09:03:31.176Z,33.42
2019-03-08T09:04:32.004Z,33.52
2019-03-08T09:05:30.705Z,33.52
2019-03-08T09:06:33.645Z,34.12
2019-03-08T09:07:31.187Z,33.52
2019-03-08T09:08:31.193Z,33.73
2019-03-08T09:09:31.160Z,33.54
2019-03-08T09:10:31.211Z,34.23
2019-03-08T09:11:33.861Z,33.84
2019-03-08T09:12:30.255Z,33.85
2019-03-08T09:13:33.168Z,33.85
2019-03-08T09:14:31.193Z,33.95
2019-03-08T09:15:31.211Z,34.15
2019-03-08T09:16:31.226Z,34.25
2019-03-08T09:17:31.179Z,34.45
2019-03-08T09:18:31.188Z,34.34
2019-03-08T09:19:31.168Z,34.55
2019-03-08T09:20:31.339Z,34.34
2019-03-08T09:21:30.757Z,34.25
2019-03-08T09:22:30.664Z,34.45
2019-03-08T09:23:30.736Z,34.25
2019-03-08T09:24:31.998Z,34.34
2019-03-08T09:25:36.138Z,34.45
2019-03-08T09:26:33.119Z,34.76
2019-03-08T09:27:33.012Z,34.95
2019-03-08T09:28:38.676Z,34.58
2019-03-08T09:31:05.622Z,35.57
2019-03-08T09:32:08.113Z,35.67
2019-03-08T09:33:06.140Z,35.17
2019-03-08T09:34:06.125Z,35.27
2019-03-08T09:35:06.162Z,35.37
2019-03-08T09:36:06.161Z,35.47
2019-03-08T09:37:06.119Z,35.47
2019-03-08T09:38:08.116Z,35.77
2019-03-08T09:39:06.211Z,35.07
2019-03-08T09:40:06.126Z,35.19
2019-03-08T09:41:05.273Z,34.99
2019-03-08T09:42:34.075Z,35.58
2019-03-08T09:43:05.650Z,36.08
2019-03-08T09:44:05.249Z,35.90
2019-03-08T09:45:06.122Z,36.08
2019-03-08T09:46:05.637Z,36.30
2019-03-08T09:47:06.130Z,36.50
2019-03-08T09:48:06.162Z,35.90
2019-03-08T09:49:06.121Z,36.00
2019-03-08T09:50:05.646Z,36.10
2019-03-08T09:51:06.143Z,36.00
2019-03-08T09:52:06.114Z,36.10
2019-03-08T09:53:06.132Z,35.88
2019-03-08T09:54:05.624Z,36.10
2019-03-08T09:55:05.778Z,36.40
2019-03-08T09:56:06.814Z,36.10
2019-03-08T09:57:09.098Z,36.40
2019-03-08T09:58:09.185Z,36.10
2019-03-08T09:59:07.344Z,36.18
2019-03-08T10:00:07.274Z,35.49
2019-03-08T10:01:05.061Z,36.16
2019-03-08T10:02:06.035Z,35.67
2019-03-08T10:03:06.407Z,36.16
2019-03-08T10:04:10.657Z,35.25
2019-03-08T10:05:12.118Z,35.25
2019-03-08T10:06:10.053Z,35.24
2019-03-08T10:07:08.423Z,35.35
2019-03-08T10:08:10.112Z,34.64
2019-03-08T10:09:10.162Z,34.94
2019-03-08T10:10:13.106Z,34.92
2019-03-08T10:11:23.715Z,34.73
2019-03-08T10:12:06.800Z,34.51
2019-03-08T10:13:19.646Z,34.61
2019-03-08T10:14:10.101Z,34.12
2019-03-08T10:15:06.747Z,33.90
2019-03-08T10:16:05.624Z,34.00
2019-03-08T10:17:08.372Z,34.30
2019-03-08T10:18:05.631Z,34.18
2019-03-08T10:19:09.176Z,33.47
2019-03-08T10:20:05.630Z,33.58
2019-03-08T10:21:05.652Z,33.28
2019-03-08T10:22:05.675Z,32.98
2019-03-08T10:23:05.793Z,32.77
2019-03-08T10:24:05.630Z,32.87
2019-03-08T10:25:05.629Z,32.77
2019-03-08T10:26:05.629Z,32.77
2019-03-08T10:27:08.180Z,32.87
2019-03-08T10:28:06.123Z,32.75
2019-03-08T10:29:05.625Z,32.65
2019-03-08T10:30:05.627Z,32.95
2019-03-08T10:31:05.180Z,32.73
2019-03-08T10:32:05.632Z,33.03
2019-03-08T10:33:04.700Z,32.54
2019-03-08T10:34:05.629Z,32.64
2019-03-08T10:35:05.644Z,32.64
2019-03-08T10:36:05.655Z,32.64
2019-03-08T10:37:07.602Z,32.34
2019-03-08T10:38:04.654Z,32.84
2019-03-08T10:39:05.654Z,32.34
2019-03-08T10:40:05.780Z,32.34
2019-03-08T10:41:05.154Z,32.24
2019-03-08T10:42:05.176Z,32.14
2019-03-08T10:43:04.667Z,32.42
2019-03-08T10:44:08.847Z,32.14
2019-03-08T10:45:06.183Z,32.34
2019-03-08T10:46:05.175Z,32.54
2019-03-08T10:47:05.266Z,33.03
2019-03-08T10:48:06.164Z,32.64
2019-03-08T10:49:04.547Z,32.44
2019-03-08T10:50:12.168Z,32.34
2019-03-08T10:51:05.207Z,32.54
2019-03-08T10:52:05.151Z,32.54
2019-03-08T10:53:05.163Z,32.44
2019-03-08T10:54:04.480Z,32.64
2019-03-08T10:55:04.696Z,32.44
2019-03-08T10:56:05.138Z,32.34
2019-03-08T10:57:05.142Z,32.54
2019-03-08T10:58:05.146Z,33.03
2019-03-08T10:59:04.666Z,32.64
2019-03-08T11:00:05.193Z,32.73
2019-03-08T11:01:06.615Z,32.73
2019-03-08T11:02:05.169Z,32.54
2019-03-08T11:03:05.134Z,32.65
2019-03-08T11:04:06.031Z,32.44
2019-03-08T11:05:05.174Z,32.35
2019-03-08T11:06:05.145Z,32.45
2019-03-08T11:07:05.144Z,32.85
2019-03-08T11:08:15.154Z,32.85
2019-03-08T11:09:05.138Z,32.67
2019-03-08T11:10:07.243Z,32.85
2019-03-08T11:11:06.589Z,32.57
2019-03-08T11:12:05.173Z,32.97
2019-03-08T11:13:05.151Z,32.67
2019-03-08T11:14:05.144Z,33.46
2019-03-08T11:15:04.273Z,34.06
2019-03-08T11:16:04.762Z,33.67
2019-03-08T11:17:06.620Z,33.67
2019-03-08T11:18:05.244Z,34.17
2019-03-08T11:19:08.793Z,34.28
2019-03-08T11:20:04.207Z,34.06
2019-03-08T11:21:04.666Z,33.98
2019-03-08T11:22:05.253Z,34.08
2019-03-08T11:23:05.165Z,33.79
2019-03-08T11:24:06.168Z,34.18
2019-03-08T11:25:08.045Z,33.79
2019-03-08T11:26:04.160Z,33.79
2019-03-08T11:27:05.322Z,33.98
2019-03-08T11:28:04.650Z,33.79
2019-03-08T11:29:04.651Z,33.89
2019-03-08T11:30:04.141Z,34.30
2019-03-08T11:31:04.102Z,34.39
2019-03-08T11:32:04.169Z,34.48
2019-03-08T11:33:04.670Z,34.28
2019-03-08T11:34:04.773Z,34.58
2019-03-08T11:35:04.670Z,34.48
2019-03-08T11:36:04.942Z,34.20
2019-03-08T11:37:05.653Z,34.10
2019-03-08T11:38:04.668Z,34.30
2019-03-08T11:39:04.657Z,34.39
2019-03-08T11:40:06.639Z,34.99
2019-03-08T11:41:03.984Z,34.81
2019-03-08T11:42:04.656Z,35.11
2019-03-08T11:43:04.675Z,35.70
2019-03-08T11:44:04.196Z,35.40
2019-03-08T11:45:04.683Z,35.11
2019-03-08T11:46:03.979Z,35.22
2019-03-08T11:47:05.063Z,35.32
2019-03-08T11:48:04.336Z,34.92
2019-03-08T11:49:04.661Z,34.92
2019-03-08T11:50:04.672Z,35.02
2019-03-08T11:51:04.407Z,35.02
2019-03-08T11:52:04.656Z,35.12
2019-03-08T11:53:04.653Z,35.24
2019-03-08T11:54:04.790Z,35.52
2019-03-08T11:55:04.235Z,35.04
2019-03-08T11:56:04.667Z,36.03
2019-03-08T11:57:04.961Z,35.63
2019-03-08T11:58:04.675Z,35.46
2019-03-08T11:59:04.188Z,36.05
2019-03-08T12:00:04.697Z,35.95
2019-03-08T12:01:04.735Z,35.25
2019-03-08T12:02:05.570Z,36.35
2019-03-08T12:03:04.177Z,36.86
2019-03-08T12:04:04.658Z,36.76
2019-03-08T12:05:04.673Z,36.86
2019-03-08T12:06:04.659Z,36.36
2019-03-08T12:07:03.718Z,36.26
2019-03-08T12:08:04.192Z,36.76
2019-03-08T12:09:04.781Z,36.16
2019-03-08T12:10:04.187Z,36.26
2019-03-08T12:11:06.663Z,36.46
2019-03-08T12:12:04.657Z,36.66
2019-03-08T12:13:04.155Z,36.76
2019-03-08T12:14:04.158Z,36.16
2019-03-08T12:15:04.209Z,37.05
2019-03-08T12:16:04.157Z,36.98
2019-03-08T12:17:04.157Z,36.77
2019-03-08T12:18:03.684Z,36.77
2019-03-08T12:19:04.168Z,36.68
2019-03-08T12:20:03.685Z,36.58
2019-03-08T12:21:04.466Z,36.58
2019-03-08T12:22:04.215Z,37.07
2019-03-08T12:23:03.574Z,37.69
2019-03-08T12:24:03.697Z,37.59
2019-03-08T12:25:03.693Z,37.59
2019-03-08T12:26:04.159Z,37.59
2019-03-08T12:27:04.719Z,37.79
2019-03-08T12:28:03.518Z,37.69
2019-03-08T12:29:04.179Z,37.88
2019-03-08T12:30:04.511Z,37.98
2019-03-08T12:31:03.475Z,37.69
2019-03-08T12:32:04.227Z,37.70
2019-03-08T12:33:03.440Z,37.88
2019-03-08T12:34:03.452Z,37.88
2019-03-08T12:35:04.192Z,37.70
2019-03-08T12:36:04.300Z,37.70
2019-03-08T12:37:03.398Z,37.81
2019-03-08T12:38:03.410Z,37.51
2019-03-08T12:39:04.206Z,37.62
2019-03-08T12:40:03.430Z,37.60
2019-03-08T12:41:03.364Z,37.43
2019-03-08T12:42:04.164Z,37.41
2019-03-08T12:43:08.094Z,38.02
2019-03-08T12:44:04.765Z,38.02
2019-03-08T12:45:03.359Z,38.12
2019-03-08T12:46:03.307Z,38.30
2019-03-08T12:47:03.300Z,38.42
2019-03-08T12:48:03.289Z,38.32
2019-03-08T12:49:03.305Z,38.32
2019-03-08T12:50:03.275Z,37.51
2019-03-08T12:51:03.272Z,37.70
2019-03-08T12:52:04.170Z,37.81
2019-03-08T12:53:04.167Z,37.81
2019-03-08T12:54:03.220Z,37.88